createdAt,value
2018-11-06T00:01:18.500Z,20.70
2018-11-06T00:03:49.254Z,16.37
2018-11-06T00:06:20.175Z,17.20
2018-11-06T00:08:50.093Z,19.03
2018-11-06T00:11:19.787Z,18.03
2018-11-06T00:13:49.272Z,19.30
2018-11-06T00:16:19.063Z,18.50
2018-11-06T00:18:53.331Z,19.20
2018-11-06T00:21:22.994Z,18.60
2018-11-06T00:23:53.543Z,19.30
2018-11-06T00:26:24.383Z,17.80
2018-11-06T00:28:54.260Z,17.57
2018-11-06T00:31:25.155Z,17.60
2018-11-06T00:33:56.085Z,18.30
2018-11-06T00:36:31.339Z,17.57
2018-11-06T00:39:02.288Z,18.00
2018-11-06T00:41:32.459Z,16.57
2018-11-06T00:44:07.539Z,17.10
2018-11-06T00:46:47.583Z,19.57
2018-11-06T00:49:17.433Z,17.83
2018-11-06T00:51:50.639Z,17.00
2018-11-06T00:54:20.475Z,15.80
2018-11-06T00:56:57.001Z,17.00
2018-11-06T00:59:26.868Z,17.00
2018-11-06T01:01:56.859Z,17.40
2018-11-06T01:04:28.711Z,18.03
2018-11-06T01:06:58.293Z,16.80
2018-11-06T01:09:30.083Z,17.87
2018-11-06T01:12:01.747Z,18.20
2018-11-06T01:14:32.287Z,17.13
2018-11-06T01:17:05.107Z,15.50
2018-11-06T01:19:34.964Z,17.07
2018-11-06T01:22:06.041Z,17.23
2018-11-06T01:24:35.915Z,16.27
2018-11-06T01:27:07.647Z,14.90
2018-11-06T01:29:37.187Z,16.67
2018-11-06T01:32:08.951Z,16.40
2018-11-06T01:34:38.843Z,15.23
2018-11-06T01:37:08.415Z,15.70
2018-11-06T01:39:40.235Z,15.97
2018-11-06T01:42:10.125Z,16.23
2018-11-06T01:44:39.723Z,15.60
2018-11-06T01:47:09.519Z,15.30
2018-11-06T01:49:42.723Z,16.10
2018-11-06T01:52:12.643Z,16.70
2018-11-06T01:54:42.583Z,15.80
2018-11-06T01:57:12.479Z,16.00
2018-11-06T01:59:49.187Z,16.20
2018-11-06T02:02:22.358Z,14.60
2018-11-06T02:04:51.959Z,15.90
2018-11-06T02:07:26.647Z,17.63
2018-11-06T02:09:56.271Z,17.27
2018-11-06T02:12:25.771Z,19.73
2018-11-06T02:14:55.579Z,17.67
2018-11-06T02:17:25.535Z,18.23
2018-11-06T02:19:56.495Z,18.13
2018-11-06T02:22:26.399Z,18.23
2018-11-06T02:24:57.183Z,16.97
2018-11-06T02:27:34.983Z,17.67
2018-11-06T02:30:05.687Z,15.43
2018-11-06T02:32:35.819Z,15.90
2018-11-06T02:35:07.664Z,15.40
2018-11-06T02:37:38.879Z,14.53
2018-11-06T02:40:14.144Z,15.30
2018-11-06T02:42:45.079Z,15.87
2018-11-06T02:45:18.407Z,14.43
2018-11-06T02:47:53.755Z,15.30
2018-11-06T02:50:24.648Z,13.47
2018-11-06T02:52:56.479Z,14.70
2018-11-06T02:55:26.787Z,15.33
2018-11-06T02:57:57.575Z,14.23
2018-11-06T03:00:27.571Z,14.60
2018-11-06T03:02:57.091Z,14.50
2018-11-06T03:05:27.659Z,14.00
2018-11-06T03:07:57.263Z,14.00
2018-11-06T03:10:26.943Z,14.17
2018-11-06T03:13:03.715Z,12.77
2018-11-06T03:15:33.691Z,12.50
2018-11-06T03:18:07.807Z,12.73
2018-11-06T03:22:59.871Z,12.80
2018-11-06T03:25:31.368Z,13.73
2018-11-06T03:28:02.132Z,12.20
2018-11-06T03:30:32.083Z,10.87
2018-11-06T03:33:01.680Z,12.47
2018-11-06T03:35:31.199Z,11.47
2018-11-06T03:38:05.004Z,9.93
2018-11-06T03:40:34.775Z,11.20
2018-11-06T03:43:04.475Z,12.20
2018-11-06T03:45:34.387Z,11.83
2018-11-06T03:48:05.019Z,11.03
2018-11-06T03:50:34.819Z,10.70
2018-11-06T03:53:04.708Z,10.90
2018-11-06T03:55:38.172Z,10.03
2018-11-06T03:58:09.799Z,10.27
2018-11-06T04:00:41.715Z,9.97
2018-11-06T04:03:11.436Z,10.90
2018-11-06T04:05:41.974Z,10.40
2018-11-06T04:08:11.767Z,10.23
2018-11-06T04:10:42.639Z,10.67
2018-11-06T04:13:12.315Z,10.20
2018-11-06T04:15:47.467Z,10.50
2018-11-06T04:18:17.311Z,11.00
2018-11-06T04:20:48.927Z,10.47
2018-11-06T04:23:19.699Z,10.23
2018-11-06T04:25:55.014Z,9.60
2018-11-06T04:28:26.903Z,9.60
2018-11-06T04:30:56.792Z,10.80
2018-11-06T04:33:30.877Z,9.90
2018-11-06T04:36:01.563Z,11.47
2018-11-06T04:38:32.490Z,9.10
2018-11-06T04:41:03.027Z,10.30
2018-11-06T04:43:33.599Z,9.93
2018-11-06T04:46:06.937Z,9.83
2018-11-06T04:48:36.704Z,9.93
2018-11-06T04:51:06.672Z,9.17
2018-11-06T04:53:40.867Z,11.20
2018-11-06T04:56:10.564Z,10.57
2018-11-06T04:58:40.612Z,10.03
2018-11-06T05:01:10.456Z,8.30
2018-11-06T05:03:44.456Z,8.80
2018-11-06T05:06:14.736Z,9.20
2018-11-06T05:08:49.188Z,8.90
2018-11-06T05:11:19.063Z,9.00
2018-11-06T05:13:49.912Z,9.17
2018-11-06T05:16:19.808Z,10.00
2018-11-06T05:18:50.628Z,8.60
2018-11-06T05:21:20.761Z,9.43
2018-11-06T05:23:50.752Z,8.90
2018-11-06T05:26:21.673Z,8.97
2018-11-06T05:28:57.139Z,9.20
2018-11-06T05:31:34.922Z,8.53
2018-11-06T05:34:04.696Z,10.70
2018-11-06T05:36:35.712Z,9.63
2018-11-06T05:39:08.628Z,9.37
2018-11-06T05:41:40.347Z,11.47
2018-11-06T05:44:09.981Z,9.90
2018-11-06T05:46:40.704Z,9.80
2018-11-06T05:49:10.392Z,8.30
2018-11-06T05:51:40.004Z,9.50
2018-11-06T05:54:09.843Z,8.43
2018-11-06T05:56:40.399Z,8.37
2018-11-06T05:59:12.033Z,8.63
2018-11-06T06:01:45.192Z,8.10
2018-11-06T06:04:15.976Z,8.73
2018-11-06T06:06:57.427Z,8.23
2018-11-06T06:09:30.467Z,8.20
2018-11-06T06:12:00.059Z,7.17
2018-11-06T06:14:34.188Z,8.90
2018-11-06T06:17:06.739Z,7.93
2018-11-06T06:19:39.924Z,7.60
2018-11-06T06:22:10.671Z,7.63
2018-11-06T06:24:42.516Z,8.10
2018-11-06T06:27:13.352Z,7.70
2018-11-06T06:29:43.184Z,8.10
2018-11-06T06:32:15.036Z,7.87
2018-11-06T06:34:44.956Z,6.97
2018-11-06T06:37:16.648Z,7.67
2018-11-06T06:39:46.536Z,7.13
2018-11-06T06:42:17.436Z,7.13
2018-11-06T06:44:47.340Z,7.83
2018-11-06T06:47:22.328Z,7.47
2018-11-06T06:49:52.216Z,7.83
2018-11-06T06:52:22.028Z,6.93
2018-11-06T06:54:57.774Z,8.60
2018-11-06T06:57:27.407Z,7.10
2018-11-06T06:59:57.352Z,8.20
2018-11-06T07:02:27.031Z,7.77
2018-11-06T07:04:56.588Z,7.60
2018-11-06T07:07:26.529Z,7.57
2018-11-06T07:09:58.136Z,7.60
2018-11-06T07:12:28.028Z,7.83
2018-11-06T07:14:57.911Z,7.87
2018-11-06T07:17:28.771Z,7.90
2018-11-06T07:19:58.424Z,6.70
2018-11-06T07:22:28.199Z,8.37
2018-11-06T07:24:58.228Z,7.70
2018-11-06T07:27:28.111Z,6.43
2018-11-06T07:29:57.934Z,7.50
2018-11-06T07:32:31.275Z,7.60
2018-11-06T07:35:00.971Z,7.20
2018-11-06T07:37:30.656Z,7.10
2018-11-06T07:40:01.212Z,7.00
2018-11-06T07:42:32.026Z,7.10
2018-11-06T07:45:01.647Z,8.30
2018-11-06T07:47:31.384Z,6.80
2018-11-06T07:50:01.123Z,6.90
2018-11-06T07:52:33.951Z,7.13
2018-11-06T07:55:03.776Z,7.33
2018-11-06T07:57:33.711Z,6.83
2018-11-06T08:00:03.571Z,7.27
2018-11-06T08:02:39.043Z,6.60
2018-11-06T08:05:08.836Z,7.10
2018-11-06T08:07:40.763Z,6.97
2018-11-06T08:10:12.579Z,6.43
2018-11-06T08:12:44.582Z,6.73
2018-11-06T08:15:14.585Z,6.80
2018-11-06T08:17:45.911Z,7.37
2018-11-06T08:20:19.430Z,7.53
2018-11-06T08:22:54.297Z,7.03
2018-11-06T08:25:25.984Z,7.47
2018-11-06T08:27:55.799Z,6.60
2018-11-06T08:30:27.636Z,6.67
2018-11-06T08:32:59.203Z,5.77
2018-11-06T08:35:34.768Z,6.80
2018-11-06T08:38:04.616Z,5.90
2018-11-06T08:40:34.544Z,6.67
2018-11-06T08:43:04.416Z,6.37
2018-11-06T08:45:34.223Z,5.40
2018-11-06T08:48:06.539Z,6.80
2018-11-06T08:50:43.045Z,7.60
2018-11-06T08:53:23.355Z,6.20
2018-11-06T08:55:59.688Z,6.17
2018-11-06T08:58:29.516Z,6.30
2018-11-06T09:00:59.066Z,6.67
2018-11-06T09:03:31.568Z,5.80
2018-11-06T09:06:01.156Z,6.10
2018-11-06T09:08:31.700Z,6.03
2018-11-06T09:11:01.228Z,5.50
2018-11-06T09:13:34.764Z,5.93
2018-11-06T09:16:10.119Z,5.07
2018-11-06T09:18:39.755Z,6.30
2018-11-06T09:21:13.423Z,4.93
2018-11-06T09:23:43.311Z,4.90
2018-11-06T09:26:19.972Z,5.67
2018-11-06T09:28:51.872Z,5.30
2018-11-06T09:31:21.736Z,4.60
2018-11-06T09:33:51.528Z,5.53
2018-11-06T09:36:21.720Z,4.33
2018-11-06T09:38:51.352Z,4.30
2018-11-06T09:41:21.174Z,4.43
2018-11-06T09:43:58.945Z,4.33
2018-11-06T09:46:28.851Z,4.77
2018-11-06T09:48:59.648Z,4.47
2018-11-06T09:51:30.548Z,5.30
2018-11-06T09:54:00.068Z,4.97
2018-11-06T09:56:29.808Z,4.80
2018-11-06T09:58:59.842Z,5.60
2018-11-06T10:01:29.543Z,4.87
2018-11-06T10:03:59.243Z,4.20
2018-11-06T10:06:29.923Z,4.40
2018-11-06T10:08:59.291Z,4.20
2018-11-06T10:11:32.368Z,3.47
2018-11-06T10:14:04.011Z,3.97
2018-11-06T10:16:34.007Z,4.70
2018-11-06T10:19:07.718Z,4.17
2018-11-06T10:21:38.568Z,4.20
2018-11-06T10:24:08.379Z,5.10
2018-11-06T10:26:53.075Z,4.30
2018-11-06T10:29:22.950Z,3.70
2018-11-06T10:31:52.576Z,3.30
2018-11-06T10:34:23.091Z,3.70
2018-11-06T10:36:52.903Z,3.70
2018-11-06T10:39:23.715Z,4.13
2018-11-06T10:41:54.383Z,3.40
2018-11-06T10:44:24.067Z,3.73
2018-11-06T10:46:53.747Z,3.77
2018-11-06T10:49:24.427Z,4.00
2018-11-06T10:51:57.118Z,3.40
2018-11-06T10:54:26.720Z,3.37
2018-11-06T10:56:56.607Z,3.53
2018-11-06T10:59:26.183Z,4.33
2018-11-06T11:02:01.174Z,3.90
2018-11-06T11:04:31.423Z,3.40
2018-11-06T11:07:01.071Z,3.60
2018-11-06T11:09:30.791Z,3.80
2018-11-06T11:12:00.371Z,4.23
2018-11-06T11:14:31.103Z,3.60
2018-11-06T11:17:00.615Z,3.07
2018-11-06T11:19:30.115Z,3.63
2018-11-06T11:21:59.831Z,3.70
2018-11-06T11:24:33.835Z,3.40
2018-11-06T11:27:03.505Z,3.80
2018-11-06T11:29:34.252Z,3.50
2018-11-06T11:32:03.792Z,4.00
2018-11-06T11:34:35.540Z,3.43
2018-11-06T11:37:05.377Z,3.60
2018-11-06T11:39:35.144Z,4.07
2018-11-06T11:42:05.444Z,3.93
2018-11-06T11:44:35.995Z,3.27
2018-11-06T11:47:05.780Z,3.53
2018-11-06T11:49:35.648Z,3.30
2018-11-06T11:52:05.476Z,3.57
2018-11-06T11:54:36.256Z,4.13
2018-11-06T11:57:07.129Z,3.47
2018-11-06T11:59:40.919Z,2.80
2018-11-06T12:02:13.838Z,3.20
2018-11-06T12:04:43.576Z,3.07
2018-11-06T12:07:15.424Z,2.90
2018-11-06T12:09:53.192Z,3.00
2018-11-06T12:12:22.896Z,2.90
2018-11-06T12:14:57.116Z,2.73
2018-11-06T12:17:31.299Z,3.80
2018-11-06T12:20:00.779Z,3.20
2018-11-06T12:22:40.475Z,3.17
2018-11-06T12:25:10.815Z,3.30
2018-11-06T12:27:40.515Z,3.70
2018-11-06T12:30:15.460Z,3.40
2018-11-06T12:32:46.270Z,3.53
2018-11-06T12:35:16.203Z,3.10
2018-11-06T12:37:50.203Z,3.20
2018-11-06T12:40:19.683Z,3.60
2018-11-06T12:42:49.455Z,3.90
2018-11-06T12:45:19.203Z,2.73
2018-11-06T12:47:49.980Z,3.50
2018-11-06T12:50:25.173Z,3.63
2018-11-06T12:52:54.918Z,3.37
2018-11-06T12:55:25.691Z,3.63
2018-11-06T12:57:55.539Z,3.53
2018-11-06T13:00:25.330Z,3.60
2018-11-06T13:02:59.179Z,3.60
2018-11-06T13:05:29.807Z,3.80
2018-11-06T13:07:59.418Z,3.37
2018-11-06T13:10:29.895Z,3.47
2018-11-06T13:13:00.352Z,4.17
2018-11-06T13:15:29.978Z,3.40
2018-11-06T13:17:59.453Z,3.03
2018-11-06T13:20:28.943Z,3.37
2018-11-06T13:22:58.412Z,3.33
2018-11-06T13:25:28.944Z,3.57
2018-11-06T13:27:59.636Z,2.90
2018-11-06T13:30:29.220Z,3.70
2018-11-06T13:32:58.935Z,3.60
2018-11-06T13:35:28.688Z,3.27
2018-11-06T13:37:58.479Z,3.67
2018-11-06T13:40:31.791Z,4.20
2018-11-06T13:43:01.433Z,3.90
2018-11-06T13:45:31.306Z,4.00
2018-11-06T13:48:00.665Z,4.47
2018-11-06T13:50:30.200Z,3.73
2018-11-06T13:53:00.691Z,4.13
2018-11-06T13:55:32.164Z,4.80
2018-11-06T13:58:01.656Z,4.20
2018-11-06T14:00:31.371Z,4.77
2018-11-06T14:03:00.944Z,4.63
2018-11-06T14:05:30.443Z,4.73
2018-11-06T14:08:00.020Z,4.30
2018-11-06T14:10:29.728Z,4.90
2018-11-06T14:12:59.599Z,5.00
2018-11-06T14:15:30.519Z,5.10
2018-11-06T14:18:00.380Z,4.97
2018-11-06T14:20:32.084Z,4.60
2018-11-06T14:23:01.557Z,5.10
2018-11-06T14:25:31.040Z,5.30
2018-11-06T14:28:00.752Z,4.80
2018-11-06T14:30:30.564Z,4.90
2018-11-06T14:33:00.364Z,5.70
2018-11-06T14:35:33.763Z,5.50
2018-11-06T14:38:04.235Z,5.40
2018-11-06T14:40:35.060Z,5.70
2018-11-06T14:43:08.048Z,5.23
2018-11-06T14:45:38.752Z,6.80
2018-11-06T14:48:10.591Z,6.27
2018-11-06T14:50:40.420Z,6.60
2018-11-06T14:53:10.244Z,6.90
2018-11-06T14:55:40.032Z,5.87
2018-11-06T14:58:09.909Z,7.20
2018-11-06T15:00:40.717Z,6.20
2018-11-06T15:03:10.640Z,6.10
2018-11-06T15:05:40.570Z,7.43
2018-11-06T15:08:11.392Z,5.90
2018-11-06T15:10:42.204Z,5.73
2018-11-06T15:13:18.935Z,6.47
2018-11-06T15:15:48.696Z,6.33
2018-11-06T15:18:22.128Z,6.83
2018-11-06T15:20:56.679Z,6.60
2018-11-06T15:23:26.520Z,6.73
2018-11-06T15:25:56.097Z,7.53
2018-11-06T15:28:25.820Z,6.60
2018-11-06T15:30:55.371Z,7.37
2018-11-06T15:33:25.170Z,7.10
2018-11-06T15:35:54.984Z,7.43
2018-11-06T15:38:24.876Z,7.20
2018-11-06T15:40:57.810Z,7.67
2018-11-06T15:43:28.500Z,7.57
2018-11-06T15:45:59.236Z,7.23
2018-11-06T15:48:29.195Z,7.60
2018-11-06T15:50:58.944Z,7.70
2018-11-06T15:53:28.704Z,8.03
2018-11-06T15:56:01.936Z,7.73
2018-11-06T15:58:43.364Z,8.27
2018-11-06T16:01:13.229Z,8.33
2018-11-06T16:03:45.929Z,8.83
2018-11-06T16:06:15.417Z,9.33
2018-11-06T16:08:46.139Z,7.90
2018-11-06T16:11:15.975Z,8.73
2018-11-06T16:13:46.796Z,10.23
2018-11-06T16:16:19.682Z,9.47
2018-11-06T16:18:50.608Z,9.27
2018-11-06T16:21:21.388Z,9.70
2018-11-06T16:23:51.280Z,10.37
2018-11-06T16:26:23.087Z,9.60
2018-11-06T16:28:57.288Z,10.70
2018-11-06T16:31:28.012Z,10.03
2018-11-06T16:33:57.903Z,9.57
2018-11-06T16:36:28.669Z,11.70
2018-11-06T16:38:58.363Z,11.03
2018-11-06T16:41:29.146Z,10.07
2018-11-06T16:43:59.932Z,10.37
2018-11-06T16:46:29.861Z,10.33
2018-11-06T16:48:59.648Z,12.40
2018-11-06T16:51:29.608Z,10.90
2018-11-06T16:53:59.404Z,10.47
2018-11-06T16:56:31.244Z,11.90
2018-11-06T16:59:01.136Z,11.20
2018-11-06T17:01:37.868Z,11.20
2018-11-06T17:04:07.410Z,9.90
2018-11-06T17:06:47.340Z,11.10
2018-11-06T17:09:21.939Z,10.63
2018-11-06T17:11:57.406Z,11.20
2018-11-06T17:14:27.956Z,12.47
2018-11-06T17:16:57.767Z,12.13
2018-11-06T17:19:32.016Z,11.20
2018-11-06T17:22:01.828Z,10.77
2018-11-06T17:24:32.648Z,11.00
2018-11-06T17:27:02.232Z,11.60
2018-11-06T17:29:31.931Z,11.00
2018-11-06T17:32:01.760Z,11.40
2018-11-06T17:34:32.564Z,10.93
2018-11-06T17:37:02.173Z,11.73
2018-11-06T17:39:32.976Z,11.53
2018-11-06T17:42:02.519Z,11.00
2018-11-06T17:44:33.068Z,11.97
2018-11-06T17:47:02.530Z,12.07
2018-11-06T17:49:32.271Z,12.43
2018-11-06T17:52:01.806Z,12.57
2018-11-06T17:54:31.392Z,11.03
2018-11-06T17:57:02.072Z,11.93
2018-11-06T17:59:38.858Z,11.80
2018-11-06T18:02:15.516Z,12.00
2018-11-06T18:04:48.464Z,12.90
2018-11-06T18:07:22.473Z,13.67
2018-11-06T18:09:52.076Z,11.40
2018-11-06T18:12:22.652Z,13.37
2018-11-06T18:14:52.545Z,11.23
2018-11-06T18:17:26.178Z,12.63
2018-11-06T18:19:55.720Z,11.43
2018-11-06T18:22:29.084Z,12.93
2018-11-06T18:25:02.526Z,13.27
2018-11-06T18:27:41.917Z,12.40
2018-11-06T18:30:18.232Z,13.10
2018-11-06T18:32:49.112Z,12.40
2018-11-06T18:35:19.388Z,12.00
2018-11-06T18:37:52.240Z,13.53
2018-11-06T18:40:21.892Z,13.20
2018-11-06T18:42:52.080Z,14.13
2018-11-06T18:45:23.927Z,13.50
2018-11-06T18:48:01.634Z,12.13
2018-11-06T18:50:32.528Z,14.43
2018-11-06T18:53:03.384Z,14.53
2018-11-06T18:55:35.420Z,12.87
2018-11-06T18:58:05.863Z,12.23
2018-11-06T19:00:36.629Z,12.63
2018-11-06T19:03:06.488Z,13.10
2018-11-06T19:05:36.316Z,13.47
2018-11-06T19:08:06.944Z,13.23
2018-11-06T19:10:36.761Z,11.90
2018-11-06T19:13:07.620Z,13.70
2018-11-06T19:15:37.504Z,11.60
2018-11-06T19:18:07.376Z,13.13
2018-11-06T19:20:37.031Z,12.47
2018-11-06T19:23:06.828Z,13.80
2018-11-06T19:25:36.776Z,12.80
2018-11-06T19:28:12.828Z,13.37
2018-11-06T19:30:43.765Z,12.30
2018-11-06T19:33:17.964Z,13.17
2018-11-06T19:35:49.624Z,12.47
2018-11-06T19:38:23.612Z,12.10
2018-11-06T19:40:56.728Z,13.60
2018-11-06T19:43:27.540Z,13.17
2018-11-06T19:46:00.532Z,13.20
2018-11-06T19:48:31.224Z,12.80
2018-11-06T19:51:01.104Z,12.60
2018-11-06T19:53:36.794Z,13.40
2018-11-06T19:56:20.937Z,12.77
2018-11-06T19:58:54.768Z,12.60
2018-11-06T20:01:24.508Z,13.23
2018-11-06T20:03:55.305Z,13.57
2018-11-06T20:06:28.212Z,13.17
2018-11-06T20:08:59.149Z,14.10
2018-11-06T20:11:39.735Z,15.10
2018-11-06T20:14:16.300Z,15.03
2018-11-06T20:16:46.980Z,14.37
2018-11-06T20:19:16.824Z,13.30
2018-11-06T20:21:51.208Z,14.90
2018-11-06T20:24:22.085Z,14.90
2018-11-06T20:26:56.520Z,15.10
2018-11-06T20:29:26.300Z,14.57
2018-11-06T20:31:56.025Z,14.57
2018-11-06T20:34:25.816Z,14.83
2018-11-06T20:36:55.725Z,14.23
2018-11-06T20:39:25.640Z,14.83
2018-11-06T20:42:00.736Z,14.20
2018-11-06T20:44:30.265Z,14.93
2018-11-06T20:47:00.812Z,14.37
2018-11-06T20:49:30.639Z,14.80
2018-11-06T20:52:00.432Z,13.67
2018-11-06T20:54:30.332Z,15.30
2018-11-06T20:57:00.277Z,15.07
2018-11-06T20:59:30.100Z,15.60
2018-11-06T21:02:01.928Z,14.90
2018-11-06T21:04:31.829Z,15.50
2018-11-06T21:07:02.743Z,15.10
2018-11-06T21:09:32.408Z,16.20
2018-11-06T21:12:03.076Z,15.20
2018-11-06T21:14:36.416Z,15.43
2018-11-06T21:17:06.245Z,15.13
2018-11-06T21:19:38.140Z,15.03
2018-11-06T21:22:14.468Z,16.83
2018-11-06T21:24:45.343Z,15.97
2018-11-06T21:27:15.302Z,13.70
2018-11-06T21:29:45.140Z,14.07
2018-11-06T21:32:14.944Z,16.23
2018-11-06T21:34:45.546Z,14.67
2018-11-06T21:37:15.112Z,14.37
2018-11-06T21:39:46.948Z,15.20
2018-11-06T21:42:18.801Z,15.80
2018-11-06T21:44:48.845Z,12.47
2018-11-06T21:47:18.713Z,15.00
2018-11-06T21:49:48.624Z,15.27
2018-11-06T21:52:20.425Z,13.77
2018-11-06T21:54:54.192Z,14.53
2018-11-06T21:57:24.120Z,12.63
2018-11-06T21:59:55.988Z,12.90
2018-11-06T22:02:25.848Z,13.80
2018-11-06T22:04:56.500Z,14.00
2018-11-06T22:07:26.149Z,14.83
2018-11-06T22:09:56.856Z,15.07
2018-11-06T22:12:26.793Z,15.70
2018-11-06T22:14:56.692Z,15.13
2018-11-06T22:17:27.520Z,14.43
2018-11-06T22:20:03.336Z,16.10
2018-11-06T22:22:33.149Z,13.13
2018-11-06T22:25:03.057Z,14.77
2018-11-06T22:27:32.993Z,13.77
2018-11-06T22:30:04.313Z,14.17
2018-11-06T22:32:35.117Z,13.47
2018-11-06T22:35:05.657Z,14.20
2018-11-06T22:37:39.273Z,15.20
2018-11-06T22:40:11.365Z,14.43
2018-11-06T22:42:44.160Z,17.87
2018-11-06T22:45:14.913Z,19.77
2018-11-06T22:47:44.680Z,19.40
2018-11-06T22:50:26.148Z,22.87
2018-11-06T22:53:01.601Z,20.40
2018-11-06T22:55:34.709Z,20.63
2018-11-06T22:58:04.337Z,18.07
2018-11-06T23:00:45.692Z,17.00
2018-11-06T23:03:16.548Z,18.07
2018-11-06T23:05:46.555Z,15.13
2018-11-06T23:08:26.773Z,13.80
2018-11-06T23:10:56.767Z,15.03
2018-11-06T23:13:26.645Z,14.77
2018-11-06T23:15:56.564Z,14.80
2018-11-06T23:18:26.473Z,13.27
2018-11-06T23:20:56.365Z,13.80
2018-11-06T23:23:26.193Z,14.37
2018-11-06T23:25:57.061Z,13.00
2018-11-06T23:28:26.972Z,15.27
2018-11-06T23:30:57.885Z,14.50
2018-11-06T23:33:27.788Z,14.70
2018-11-06T23:35:59.429Z,15.90
2018-11-06T23:38:29.936Z,15.33
2018-11-06T23:41:01.717Z,14.78
2018-11-06T23:43:33.569Z,15.37
2018-11-06T23:46:03.497Z,14.90
2018-11-06T23:48:35.232Z,13.60
2018-11-06T23:51:04.697Z,13.62
2018-11-06T23:53:34.409Z,13.93
2018-11-06T23:56:04.064Z,12.93
2018-11-06T23:58:34.645Z,14.77
